Time;durP1;ratioP1;P1;durP2;ratioP2;P2;SDS_P1;SDS_P2;PMS_P1;PMS_P2;Temp;Humidity;BMP_temperature;BMP_pressure;BME280_temperature;BME280_humidity;BME280_pressure;Samples;Min_cycle;Max_cycle;Signal;HPM_P1;HPM_P2
2023/03/12 00:02:38;;;;;;;2.75;1.50;;;-2.10;99.90;;;;;;8225042;28;20030;-79
2023/03/12 00:06:38;;;;;;;1.73;1.60;;;-2.00;99.90;;;;;;8208015;28;20031;-79
2023/03/12 00:10:40;;;;;;;3.85;1.67;;;-1.90;99.90;;;;;;8224310;28;20045;-79
2023/03/12 00:14:40;;;;;;;2.90;1.95;;;-2.20;99.90;;;;;;8206856;28;20037;-78
2023/03/12 00:18:42;;;;;;;3.35;1.60;;;-2.30;99.90;;;;;;8211949;28;20019;-79
2023/03/12 00:22:42;;;;;;;2.15;1.48;;;-2.40;99.90;;;;;;8211786;28;20030;-78
2023/03/12 00:26:43;;;;;;;2.33;1.50;;;-2.40;99.90;;;;;;8210112;28;20027;-79
2023/03/12 00:30:44;;;;;;;3.05;1.70;;;-2.50;99.90;;;;;;8210893;28;20041;-79
2023/03/12 00:34:53;;;;;;;2.85;1.58;;;-2.50;99.90;;;;;;8234591;28;20031;-79
2023/03/12 00:38:55;;;;;;;2.72;1.38;;;-2.50;99.90;;;;;;8216375;28;20023;-78
2023/03/12 00:42:56;;;;;;;2.47;1.85;;;-2.60;99.90;;;;;;8217192;28;20118;-79
2023/03/12 00:46:57;;;;;;;7.03;2.15;;;-2.70;99.90;;;;;;8217359;28;20031;-79
2023/03/12 00:50:57;;;;;;;2.90;1.83;;;-2.80;99.90;;;;;;8216365;28;20548;-79
2023/03/12 00:54:58;;;;;;;4.05;2.10;;;-2.70;99.90;;;;;;8217191;28;20121;-78
2023/03/12 00:58:58;;;;;;;3.47;1.90;;;-2.60;99.90;;;;;;8233995;28;20054;-79
2023/03/12 01:02:59;;;;;;;4.32;1.80;;;-2.70;99.90;;;;;;8226120;28;20042;-78
2023/03/12 01:06:59;;;;;;;3.17;1.95;;;-2.50;99.90;;;;;;8215969;28;20027;-79
2023/03/12 01:11:00;;;;;;;3.13;2.15;;;-2.50;99.90;;;;;;8220275;28;20035;-79
2023/03/12 01:15:01;;;;;;;4.95;1.70;;;-2.50;99.90;;;;;;8216107;28;20090;-78
2023/03/12 01:19:02;;;;;;;8.82;2.60;;;-2.60;99.90;;;;;;8210923;28;20380;-78
2023/03/12 01:23:03;;;;;;;3.45;2.30;;;-2.60;99.90;;;;;;8229538;28;20027;-78
2023/03/12 01:27:03;;;;;;;4.38;1.98;;;-2.60;99.90;;;;;;8216365;28;20035;-79
2023/03/12 01:31:13;;;;;;;3.20;2.00;;;-2.70;99.90;;;;;;8233391;28;20026;-78
2023/03/12 01:35:14;;;;;;;3.45;1.95;;;-2.80;99.90;;;;;;8229833;28;20042;-78
2023/03/12 01:39:14;;;;;;;3.40;1.92;;;-2.90;99.90;;;;;;8233057;28;20113;-78
2023/03/12 01:43:24;;;;;;;6.05;2.55;;;-3.00;99.90;;;;;;8211819;28;20023;-78
2023/03/12 01:47:26;;;;;;;2.83;1.77;;;-3.10;99.90;;;;;;8213138;28;20026;-78
2023/03/12 01:51:41;;;;;;;5.68;2.63;;;-3.10;99.90;;;;;;8215774;28;20026;-78
2023/03/12 01:55:42;;;;;;;5.15;2.75;;;-3.00;99.90;;;;;;8215369;28;20042;-79
2023/03/12 01:59:52;;;;;;;3.33;1.90;;;-2.80;99.90;;;;;;8233222;28;20027;-78
2023/03/12 02:03:55;;;;;;;4.93;2.42;;;-2.70;99.90;;;;;;8214315;28;20031;-79
2023/03/12 02:07:56;;;;;;;3.67;1.80;;;-2.50;99.90;;;;;;8210996;28;20030;-79
2023/03/12 02:11:57;;;;;;;3.55;2.20;;;-2.30;99.90;;;;;;8205540;28;20027;-79
2023/03/12 02:15:57;;;;;;;5.25;2.97;;;-2.20;99.90;;;;;;8226600;28;20035;-79
2023/03/12 02:20:39;;;;;;;4.18;2.38;;;-2.10;99.90;;;;;;8231987;28;20037;-78
2023/03/12 02:24:49;;;;;;;4.47;2.20;;;-2.00;99.90;;;;;;8204296;28;20038;-78
2023/03/12 02:28:51;;;;;;;3.80;2.13;;;-1.70;99.90;;;;;;8212337;28;20030;-78
2023/03/12 02:32:53;;;;;;;4.03;2.33;;;-1.70;99.90;;;;;;8230312;28;20034;-78
2023/03/12 02:36:53;;;;;;;5.68;2.22;;;-1.60;99.90;;;;;;8213909;28;20047;-79
2023/03/12 02:40:57;;;;;;;4.90;2.80;;;-1.60;99.90;;;;;;8209322;28;20109;-78
2023/03/12 02:44:58;;;;;;;4.15;2.33;;;-1.30;99.90;;;;;;8229951;28;20027;-78
2023/03/12 02:48:58;;;;;;;5.78;2.15;;;-1.30;99.90;;;;;;8214055;28;20031;-78
2023/03/12 02:52:59;;;;;;;3.53;1.80;;;-1.10;99.90;;;;;;8213820;28;20056;-78
2023/03/12 02:56:59;;;;;;;6.13;2.17;;;-0.80;99.90;;;;;;8208934;28;20565;-79
2023/03/12 03:01:00;;;;;;;4.03;1.92;;;-0.70;99.90;;;;;;8205998;28;20028;-79
2023/03/12 03:05:00;;;;;;;5.38;2.28;;;-0.80;99.90;;;;;;8199509;28;20076;-78
2023/03/12 03:09:01;;;;;;;3.63;2.13;;;-0.90;99.90;;;;;;8216559;28;20044;-78
2023/03/12 03:13:02;;;;;;;4.28;2.47;;;-1.00;99.90;;;;;;8195699;28;20081;-78
2023/03/12 03:17:03;;;;;;;4.05;2.40;;;-1.00;99.90;;;;;;8208169;28;20027;-79
2023/03/12 03:21:07;;;;;;;4.13;2.28;;;-0.90;99.90;;;;;;8213382;28;20380;-78
2023/03/12 03:25:09;;;;;;;4.60;2.40;;;-0.80;99.90;;;;;;8213136;28;20038;-79
2023/03/12 03:29:09;;;;;;;5.25;3.00;;;-0.80;99.90;;;;;;8209213;28;20503;-78
2023/03/12 03:33:10;;;;;;;3.58;2.47;;;-0.60;99.90;;;;;;8212451;28;20027;-78
2023/03/12 03:37:10;;;;;;;1.95;1.65;;;-0.40;99.90;;;;;;8227186;28;20038;-78
2023/03/12 03:41:11;;;;;;;6.45;2.60;;;0.10;99.90;;;;;;8213182;28;20051;-78
2023/03/12 03:49:15;;;;;;;6.07;3.05;;;0.10;99.90;;;;;;8236735;28;20093;-80
2023/03/12 03:53:18;;;;;;;4.57;2.03;;;0.10;99.90;;;;;;8244754;28;20414;-79
2023/03/12 03:57:18;;;;;;;5.63;2.28;;;0.00;99.90;;;;;;8242292;28;20031;-82
2023/03/12 04:01:19;;;;;;;4.63;2.42;;;-0.20;99.90;;;;;;8236276;28;20028;-81
2023/03/12 04:05:20;;;;;;;5.53;2.75;;;0.00;99.90;;;;;;8239472;28;20038;-81
2023/03/12 04:09:21;;;;;;;6.15;3.30;;;0.10;99.90;;;;;;8250199;28;20038;-80
2023/03/12 04:13:21;;;;;;;12.63;6.05;;;0.30;99.90;;;;;;8250821;28;20023;-81
2023/03/12 04:17:22;;;;;;;11.90;5.90;;;0.50;99.90;;;;;;8248122;28;20031;-81
2023/03/12 04:21:22;;;;;;;9.40;5.32;;;0.70;99.90;;;;;;8251660;28;20023;-81
2023/03/12 04:25:23;;;;;;;10.15;5.00;;;0.70;99.90;;;;;;8249859;28;20023;-80
2023/03/12 04:29:24;;;;;;;10.57;5.25;;;0.80;99.90;;;;;;8251267;28;20499;-81
2023/03/12 04:33:29;;;;;;;12.15;5.53;;;1.20;99.90;;;;;;8250999;28;20042;-81
2023/03/12 04:37:32;;;;;;;12.15;5.20;;;1.60;99.90;;;;;;8250070;28;20348;-81
2023/03/12 04:41:34;;;;;;;11.50;5.75;;;1.80;99.90;;;;;;8250090;28;20019;-80
2023/03/12 04:45:35;;;;;;;10.20;5.07;;;1.90;99.90;;;;;;8252169;28;20034;-80
2023/03/12 04:49:38;;;;;;;9.88;5.13;;;1.90;99.90;;;;;;8252928;28;20038;-81
2023/03/12 04:53:39;;;;;;;8.38;3.88;;;2.00;99.90;;;;;;8250569;28;20179;-80
2023/03/12 04:57:39;;;;;;;11.38;5.60;;;1.90;99.90;;;;;;8249965;28;20035;-78
2023/03/12 05:01:40;;;;;;;10.85;4.82;;;1.90;99.90;;;;;;8245483;28;20018;-81
2023/03/12 05:05:41;;;;;;;11.32;4.85;;;1.90;99.90;;;;;;8246196;28;20058;-81
2023/03/12 05:09:43;;;;;;;9.00;4.57;;;1.70;99.90;;;;;;8245519;28;20095;-80
2023/03/12 05:13:44;;;;;;;6.35;3.65;;;1.80;99.90;;;;;;8262642;28;20010;-80
2023/03/12 05:17:44;;;;;;;8.60;3.83;;;1.80;99.90;;;;;;8245520;28;20038;-79
2023/03/12 05:21:45;;;;;;;6.90;3.58;;;1.80;99.90;;;;;;8238795;28;20022;-78
2023/03/12 05:25:46;;;;;;;6.47;3.63;;;1.80;99.90;;;;;;8232206;28;20502;-79
2023/03/12 05:29:46;;;;;;;7.25;3.95;;;1.90;99.90;;;;;;8239892;28;21143;-79
2023/03/12 05:33:47;;;;;;;7.22;3.67;;;1.80;99.90;;;;;;8243018;28;20058;-78
2023/03/12 05:37:48;;;;;;;7.75;3.45;;;1.90;99.90;;;;;;8240731;28;20031;-79
2023/03/12 05:41:48;;;;;;;7.68;4.15;;;1.80;99.90;;;;;;8237432;28;20030;-78
2023/03/12 05:45:49;;;;;;;6.50;3.25;;;1.80;99.90;;;;;;8234675;28;20035;-80
2023/03/12 05:49:51;;;;;;;4.65;2.90;;;1.80;99.90;;;;;;8236478;28;20064;-79
2023/03/12 05:53:51;;;;;;;4.80;3.08;;;2.10;99.90;;;;;;8236918;28;20022;-79
2023/03/12 05:57:52;;;;;;;6.97;3.42;;;2.20;99.90;;;;;;8235043;28;20034;-78
2023/03/12 06:01:52;;;;;;;4.70;2.30;;;2.50;99.90;;;;;;8221020;28;20031;-78
2023/03/12 06:05:55;;;;;;;3.20;1.88;;;2.40;99.90;;;;;;8228239;28;20030;-78
2023/03/12 06:09:55;;;;;;;4.20;2.15;;;2.30;99.90;;;;;;8237024;28;20153;-78
2023/03/12 06:13:56;;;;;;;4.78;2.50;;;2.60;99.90;;;;;;8234560;28;20162;-78
2023/03/12 06:17:56;;;;;;;4.38;2.40;;;2.50;99.90;;;;;;8233864;28;20436;-78
2023/03/12 06:21:57;;;;;;;3.67;2.47;;;2.40;99.90;;;;;;8233572;28;20031;-79
2023/03/12 06:25:58;;;;;;;3.80;2.20;;;2.70;99.90;;;;;;8235054;28;20097;-80
2023/03/12 06:29:59;;;;;;;4.40;2.55;;;2.80;99.90;;;;;;8220633;28;20443;-79
2023/03/12 06:33:59;;;;;;;5.13;2.38;;;3.00;99.90;;;;;;8210647;28;20125;-79
2023/03/12 06:38:00;;;;;;;12.63;5.80;;;3.10;99.90;;;;;;8208401;28;20051;-78
2023/03/12 06:42:00;;;;;;;14.30;6.55;;;3.30;99.90;;;;;;8207766;28;20055;-78
2023/03/12 06:46:02;;;;;;;5.18;2.75;;;3.30;99.90;;;;;;8212346;28;20093;-77
2023/03/12 06:50:03;;;;;;;5.63;2.30;;;3.40;99.90;;;;;;8208504;28;20031;-78
2023/03/12 06:54:04;;;;;;;6.13;2.72;;;3.50;99.90;;;;;;8207198;28;20325;-77
2023/03/12 06:58:05;;;;;;;7.22;2.78;;;3.60;99.90;;;;;;8206895;28;20032;-77
2023/03/12 07:02:05;;;;;;;6.50;2.92;;;3.50;99.90;;;;;;8204606;28;20031;-77
2023/03/12 07:06:16;;;;;;;5.47;3.00;;;3.60;99.90;;;;;;8220588;28;20020;-78
2023/03/12 07:10:17;;;;;;;8.82;3.70;;;3.60;99.90;;;;;;8203244;28;20034;-78
2023/03/12 07:14:19;;;;;;;6.93;3.22;;;3.70;99.90;;;;;;8204750;28;20054;-79
2023/03/12 07:18:19;;;;;;;5.97;3.33;;;3.80;99.90;;;;;;8205446;28;20026;-79
2023/03/12 07:22:20;;;;;;;8.18;3.38;;;3.70;99.90;;;;;;8200458;28;20036;-79
2023/03/12 07:26:20;;;;;;;6.65;3.05;;;3.70;99.90;;;;;;8205107;28;20023;-78
2023/03/12 07:30:21;;;;;;;8.10;3.38;;;3.60;99.90;;;;;;8205405;28;20750;-78
2023/03/12 07:34:21;;;;;;;6.00;3.47;;;3.70;99.90;;;;;;8202691;28;20038;-78
2023/03/12 07:38:22;;;;;;;5.43;2.80;;;3.80;99.90;;;;;;8204040;28;20026;-79
2023/03/12 07:42:23;;;;;;;5.00;2.80;;;3.80;99.90;;;;;;8206885;28;20053;-79
2023/03/12 07:46:23;;;;;;;5.55;2.70;;;3.80;99.90;;;;;;8209290;28;20059;-79
2023/03/12 07:50:24;;;;;;;4.22;2.80;;;3.80;99.90;;;;;;8208083;28;20034;-80
2023/03/12 07:54:29;;;;;;;6.65;3.28;;;3.70;99.90;;;;;;8207181;28;20027;-79
2023/03/12 07:58:30;;;;;;;5.35;2.65;;;3.90;99.90;;;;;;8206451;28;20452;-80
2023/03/12 08:02:31;;;;;;;6.30;3.20;;;4.20;99.90;;;;;;8198990;28;20110;-78
2023/03/12 08:06:32;;;;;;;4.22;2.53;;;4.30;99.90;;;;;;8206799;28;20023;-79
2023/03/12 08:10:32;;;;;;;5.25;3.10;;;4.50;99.90;;;;;;8205784;28;20035;-80
2023/03/12 08:14:34;;;;;;;6.22;2.95;;;4.90;99.90;;;;;;8205854;28;20035;-79
2023/03/12 08:18:34;;;;;;;7.13;3.17;;;5.00;99.90;;;;;;8210587;28;20038;-79
2023/03/12 08:22:39;;;;;;;5.40;3.05;;;5.00;99.90;;;;;;8211128;28;20024;-79
2023/03/12 08:26:39;;;;;;;5.70;3.38;;;5.20;99.90;;;;;;8207739;28;20030;-80
2023/03/12 08:30:48;;;;;;;5.55;3.38;;;5.40;99.90;;;;;;8211125;28;20027;-81
2023/03/12 08:34:48;;;;;;;4.85;3.38;;;5.50;99.90;;;;;;8216999;28;20662;-80
2023/03/12 08:38:49;;;;;;;5.03;3.22;;;5.90;99.90;;;;;;8219619;28;20118;-79
2023/03/12 08:42:49;;;;;;;6.38;3.13;;;6.20;99.90;;;;;;8215047;28;20162;-81
2023/03/12 08:46:51;;;;;;;4.97;2.97;;;6.40;99.90;;;;;;8217355;28;20082;-79
2023/03/12 08:50:54;;;;;;;4.93;2.80;;;6.50;99.90;;;;;;8225154;28;20031;-78
2023/03/12 08:54:55;;;;;;;6.68;3.65;;;6.70;99.90;;;;;;8214126;28;20035;-79
2023/03/12 08:58:57;;;;;;;7.85;4.22;;;7.00;99.90;;;;;;8212200;28;20031;-81
2023/03/12 09:02:58;;;;;;;5.90;3.75;;;7.50;99.90;;;;;;8214439;28;20514;-79
2023/03/12 09:07:00;;;;;;;6.75;3.35;;;7.80;99.90;;;;;;8228545;28;20081;-81
2023/03/12 09:11:01;;;;;;;14.18;6.93;;;8.00;99.90;;;;;;8212608;28;20038;-80
2023/03/12 09:15:02;;;;;;;12.43;7.65;;;8.20;99.90;;;;;;8208237;28;20023;-80
2023/03/12 09:19:03;;;;;;;7.28;4.30;;;8.40;99.90;;;;;;8209878;28;20077;-78
2023/03/12 09:23:03;;;;;;;10.70;5.85;;;8.70;99.90;;;;;;8209523;28;20522;-80
2023/03/12 09:27:04;;;;;;;8.38;4.55;;;8.70;99.90;;;;;;8207060;28;20103;-80
2023/03/12 09:31:05;;;;;;;9.32;4.63;;;9.00;99.90;;;;;;8205838;28;20731;-79
2023/03/12 09:35:07;;;;;;;42.75;16.48;;;9.00;99.90;;;;;;8203334;28;20058;-78
2023/03/12 09:39:08;;;;;;;19.08;7.97;;;9.30;99.90;;;;;;8198866;28;20031;-80
2023/03/12 09:43:19;;;;;;;7.78;4.22;;;9.50;99.90;;;;;;8205545;28;20026;-78
2023/03/12 09:47:30;;;;;;;9.02;5.05;;;9.70;99.90;;;;;;8217971;28;20495;-78
2023/03/12 09:51:43;;;;;;;8.05;3.60;;;9.00;99.90;;;;;;8217258;28;20031;-78
2023/03/12 09:55:47;;;;;;;5.68;3.55;;;8.50;99.90;;;;;;8200701;28;20616;-79
2023/03/12 09:59:51;;;;;;;7.60;4.55;;;8.50;99.90;;;;;;8188902;28;20031;-79
2023/03/12 10:04:09;;;;;;;8.60;4.25;;;8.80;99.90;;;;;;8187627;28;20527;-79
2023/03/12 10:08:16;;;;;;;7.45;3.90;;;8.70;99.90;;;;;;8203360;28;20029;-80
2023/03/12 10:12:33;;;;;;;7.00;3.83;;;9.00;99.90;;;;;;8207309;28;20054;-79
2023/03/12 10:16:53;;;;;;;6.50;2.38;;;9.00;99.90;;;;;;8211551;28;20167;-79
2023/03/12 10:21:45;;;;;;;7.80;4.22;;;8.70;99.90;;;;;;8209580;28;20587;-80
2023/03/12 10:25:54;;;;;;;6.70;4.22;;;8.40;99.90;;;;;;8192651;28;20027;-80
2023/03/12 10:29:56;;;;;;;5.80;3.47;;;8.30;99.90;;;;;;8194187;28;20027;-79
2023/03/12 10:34:02;;;;;;;7.18;4.10;;;8.50;99.90;;;;;;8225023;28;20038;-79
2023/03/12 10:38:08;;;;;;;3.15;2.15;;;9.50;99.90;;;;;;8227081;28;20043;-80
2023/03/12 10:42:18;;;;;;;4.50;2.95;;;10.20;99.90;;;;;;8227292;28;20034;-79
2023/03/12 10:46:36;;;;;;;7.90;4.15;;;9.80;99.90;;;;;;8222436;28;20055;-79
2023/03/12 10:50:39;;;;;;;8.00;3.50;;;9.40;99.90;;;;;;8233082;28;20023;-80
2023/03/12 10:54:42;;;;;;;5.45;3.40;;;9.80;99.90;;;;;;8200402;28;20038;-78
2023/03/12 10:58:53;;;;;;;6.28;3.20;;;9.90;99.90;;;;;;8195308;28;20115;-79
2023/03/12 11:03:17;;;;;;;7.75;3.70;;;10.00;99.90;;;;;;8198324;28;20487;-79
2023/03/12 11:07:22;;;;;;;4.80;3.03;;;9.80;99.90;;;;;;8221896;28;20034;-78
2023/03/12 11:11:31;;;;;;;6.72;3.67;;;9.80;99.90;;;;;;8214052;28;20035;-80
2023/03/12 11:15:35;;;;;;;6.00;3.33;;;10.10;99.90;;;;;;8198803;28;20070;-80
2023/03/12 11:19:36;;;;;;;9.15;7.32;;;10.40;99.90;;;;;;8198239;28;20035;-79
2023/03/12 11:23:43;;;;;;;5.75;3.60;;;10.50;99.90;;;;;;8190692;28;20035;-79
2023/03/12 11:27:48;;;;;;;5.82;3.67;;;10.30;99.90;;;;;;8196657;28;20035;-79
2023/03/12 11:32:03;;;;;;;4.88;3.28;;;10.30;99.90;;;;;;8203203;28;20190;-79
2023/03/12 11:36:22;;;;;;;4.43;2.35;;;10.20;99.90;;;;;;8202207;28;20114;-78
2023/03/12 11:40:37;;;;;;;5.70;3.47;;;10.60;99.90;;;;;;8199629;28;20438;-78
2023/03/12 11:44:50;;;;;;;5.72;3.53;;;11.10;99.90;;;;;;8189141;28;20027;-78
2023/03/12 11:49:15;;;;;;;7.35;3.28;;;12.00;99.90;;;;;;8194837;28;20043;-80
2023/03/12 11:53:20;;;;;;;3.90;3.03;;;12.90;99.90;;;;;;8198441;28;20039;-80
2023/03/12 11:58:05;;;;;;;3.38;2.40;;;14.00;99.90;;;;;;8193794;28;20472;-80
2023/03/12 12:02:21;;;;;;;5.03;2.30;;;13.60;99.90;;;;;;8186653;28;20545;-80
2023/03/12 12:06:46;;;;;;;4.53;2.42;;;12.70;99.90;;;;;;8181308;28;20032;-79
2023/03/12 12:10:46;;;;;;;3.10;2.05;;;12.20;99.90;;;;;;8185125;28;20750;-78
2023/03/12 12:14:59;;;;;;;2.40;1.45;;;11.70;99.90;;;;;;8186723;28;20024;-79
2023/03/12 12:19:44;;;;;;;3.92;2.30;;;11.60;99.90;;;;;;8216194;28;20056;-79
2023/03/12 12:24:03;;;;;;;3.05;1.73;;;11.30;99.90;;;;;;8203665;28;20512;-79
2023/03/12 12:28:22;;;;;;;4.55;2.20;;;11.10;99.90;;;;;;8196779;28;20054;-79
2023/03/12 12:32:39;;;;;;;3.42;1.80;;;10.90;99.90;;;;;;8193928;28;20047;-79
2023/03/12 12:36:46;;;;;;;4.10;1.55;;;11.20;99.90;;;;;;8205086;28;20118;-79
2023/03/12 12:40:51;;;;;;;2.10;1.48;;;11.70;99.90;;;;;;8203556;28;20027;-79
2023/03/12 12:44:56;;;;;;;3.83;2.15;;;11.70;99.90;;;;;;8201938;28;20162;-78
2023/03/12 12:49:01;;;;;;;2.65;1.63;;;11.90;99.90;;;;;;8185298;28;20043;-80
2023/03/12 12:53:19;;;;;;;2.97;1.25;;;12.00;99.90;;;;;;8179396;28;20068;-79
2023/03/12 12:57:59;;;;;;;2.08;1.40;;;13.10;99.90;;;;;;8209005;28;20054;-78
2023/03/12 13:02:02;;;;;;;3.30;1.27;;;14.70;99.90;;;;;;8210603;28;20700;-78
2023/03/12 13:06:05;;;;;;;1.80;1.23;;;13.60;99.90;;;;;;8203839;28;20031;-80
2023/03/12 13:10:26;;;;;;;1.20;1.05;;;12.50;99.90;;;;;;8199933;28;20176;-79
2023/03/12 13:14:40;;;;;;;1.77;1.17;;;12.90;99.90;;;;;;8204188;28;20035;-83
2023/03/12 13:18:56;;;;;;;0.93;0.90;;;15.60;99.90;;;;;;8228241;28;20197;-85
2023/03/12 13:23:02;;;;;;;1.98;0.98;;;17.70;99.90;;;;;;8228954;28;20027;-85
2023/03/12 13:27:17;;;;;;;1.27;1.10;;;16.10;99.90;;;;;;8239817;28;20534;-85
2023/03/12 13:31:27;;;;;;;1.80;1.20;;;14.30;99.90;;;;;;8221894;28;20031;-81
2023/03/12 13:35:31;;;;;;;1.87;0.90;;;13.90;99.90;;;;;;8203306;28;20030;-81
2023/03/12 13:39:33;;;;;;;1.45;0.98;;;13.20;99.90;;;;;;8216480;28;20038;-81
2023/03/12 13:43:34;;;;;;;1.20;0.90;;;12.60;99.90;;;;;;8227384;28;20719;-81
2023/03/12 13:47:42;;;;;;;1.50;1.27;;;12.70;99.90;;;;;;8229180;28;20117;-80
2023/03/12 13:51:46;;;;;;;1.98;1.35;;;12.70;99.90;;;;;;8228332;28;20027;-79
2023/03/12 13:55:59;;;;;;;3.45;1.08;;;12.40;99.90;;;;;;8226858;28;20496;-81
2023/03/12 14:00:03;;;;;;;5.63;3.72;;;11.60;99.90;;;;;;8206030;28;20030;-80
2023/03/12 14:04:11;;;;;;;2.25;1.60;;;11.40;99.90;;;;;;8207602;28;20031;-79
2023/03/12 14:08:45;;;;;;;3.60;1.80;;;11.40;99.90;;;;;;8202356;28;20530;-81
2023/03/12 14:12:58;;;;;;;1.70;1.15;;;12.20;99.90;;;;;;8222788;28;20101;-79
2023/03/12 14:17:04;;;;;;;1.08;0.82;;;13.90;99.90;;;;;;8220445;28;20479;-80
2023/03/12 14:21:12;;;;;;;1.65;1.10;;;13.40;99.90;;;;;;8230613;28;20707;-80
2023/03/12 14:25:36;;;;;;;0.77;0.65;;;12.80;99.90;;;;;;8223625;28;20031;-81
2023/03/12 14:29:51;;;;;;;3.00;1.40;;;14.20;99.90;;;;;;8227208;28;20082;-81
2023/03/12 14:33:59;;;;;;;2.28;0.90;;;13.30;99.90;;;;;;8224731;28;20117;-80
2023/03/12 14:38:11;;;;;;;1.77;1.20;;;12.90;99.90;;;;;;8225196;28;20098;-79
2023/03/12 14:42:20;;;;;;;2.35;1.48;;;11.90;99.90;;;;;;8209596;28;20110;-80
2023/03/12 14:46:22;;;;;;;1.57;1.00;;;11.70;99.90;;;;;;8204554;28;20031;-80
2023/03/12 14:50:37;;;;;;;0.80;0.80;;;12.00;99.90;;;;;;8203535;28;20443;-80
2023/03/12 14:54:38;;;;;;;1.40;1.00;;;14.10;99.90;;;;;;8203472;28;20027;-81
2023/03/12 14:58:45;;;;;;;1.25;0.90;;;16.10;99.90;;;;;;8213725;28;20027;-80
2023/03/12 15:02:46;;;;;;;3.00;1.00;;;16.80;99.90;;;;;;8218724;28;20029;-80
2023/03/12 15:06:49;;;;;;;2.58;1.10;;;17.50;99.90;;;;;;8222939;28;20054;-81
2023/03/12 15:10:57;;;;;;;2.92;1.02;;;16.90;99.90;;;;;;8222401;28;20037;-80
2023/03/12 15:15:08;;;;;;;3.53;1.02;;;17.30;99.90;;;;;;8192606;28;20030;-78
2023/03/12 15:19:13;;;;;;;1.15;0.80;;;18.50;99.90;;;;;;8203181;28;20027;-79
2023/03/12 15:23:15;;;;;;;0.98;0.63;;;19.60;99.90;;;;;;8202940;28;20027;-80
2023/03/12 15:27:28;;;;;;;2.08;0.70;;;19.60;99.90;;;;;;8210943;28;20035;-80
2023/03/12 15:31:42;;;;;;;1.63;0.63;;;17.10;99.90;;;;;;8205666;28;20039;-80
2023/03/12 15:36:23;;;;;;;2.95;0.80;;;15.30;99.90;;;;;;8206491;28;20525;-79
2023/03/12 15:40:27;;;;;;;2.97;0.82;;;14.00;99.90;;;;;;8201447;28;20432;-79
2023/03/12 15:44:29;;;;;;;1.73;0.98;;;;;;;;;;8205723;28;20565;-79
2023/03/12 15:48:35;;;;;;;1.65;0.60;;;12.10;99.90;;;;;;8207429;28;20109;-80
2023/03/12 15:52:36;;;;;;;2.35;0.68;;;11.60;99.90;;;;;;8211030;28;20041;-80
2023/03/12 15:56:36;;;;;;;3.00;0.65;;;11.10;99.90;;;;;;8212854;28;20031;-79
2023/03/12 16:00:44;;;;;;;1.33;0.50;;;11.10;99.90;;;;;;8196925;28;20121;-80
2023/03/12 16:04:45;;;;;;;4.32;0.73;;;10.80;99.90;;;;;;8225663;28;20033;-80
2023/03/12 16:08:49;;;;;;;2.55;0.70;;;10.80;99.90;;;;;;8207060;28;20397;-82
2023/03/12 16:12:53;;;;;;;4.40;0.80;;;10.80;99.90;;;;;;8192521;28;20493;-80
2023/03/12 16:16:54;;;;;;;1.52;0.90;;;10.80;99.90;;;;;;8205925;28;20038;-80
2023/03/12 16:20:54;;;;;;;2.83;0.68;;;10.70;99.90;;;;;;8183474;28;20027;-79
2023/03/12 16:24:55;;;;;;;4.25;0.90;;;10.80;99.90;;;;;;8166929;23;20593;-80
2023/03/12 16:28:55;;;;;;;6.35;1.35;;;10.60;99.90;;;;;;8146740;29;20485;-79
2023/03/12 16:32:58;;;;;;;2.63;0.80;;;10.60;99.90;;;;;;8149181;29;20040;-80
2023/03/12 16:36:58;;;;;;;4.32;0.95;;;10.30;99.90;;;;;;8152207;29;20024;-80
2023/03/12 16:40:59;;;;;;;3.70;1.05;;;10.00;99.90;;;;;;8155603;29;20551;-80
2023/03/12 16:45:00;;;;;;;1.83;0.63;;;10.00;99.90;;;;;;8158961;29;20058;-81
2023/03/12 16:49:02;;;;;;;35.05;11.95;;;9.90;99.90;;;;;;8163183;29;20047;-81
2023/03/12 16:53:03;;;;;;;6.22;0.90;;;9.50;99.90;;;;;;8182978;29;20078;-80
2023/03/12 16:57:04;;;;;;;2.28;1.38;;;9.60;99.90;;;;;;8158958;29;20042;-80
2023/03/12 17:01:04;;;;;;;1.08;0.70;;;9.50;99.90;;;;;;8145474;29;20032;-81
2023/03/12 17:05:06;;;;;;;0.90;0.70;;;9.40;99.90;;;;;;8153432;29;20481;-80
2023/03/12 17:09:07;;;;;;;1.05;0.60;;;9.30;99.90;;;;;;8151386;29;20035;-81
2023/03/12 17:13:27;;;;;;;4.25;0.80;;;9.20;99.90;;;;;;8170814;29;20468;-81
2023/03/12 17:17:28;;;;;;;3.00;0.88;;;9.10;99.90;;;;;;8154742;29;20035;-80
2023/03/12 17:21:29;;;;;;;2.03;0.60;;;8.80;99.90;;;;;;8153197;29;20203;-81
2023/03/12 17:25:32;;;;;;;4.88;1.10;;;8.70;99.90;;;;;;8157313;29;20028;-81
2023/03/12 17:29:32;;;;;;;4.65;0.85;;;8.90;99.90;;;;;;8151072;29;20020;-81
2023/03/12 17:33:33;;;;;;;2.90;0.80;;;9.00;99.90;;;;;;8165433;29;20063;-81
2023/03/12 17:37:35;;;;;;;4.40;0.80;;;8.90;99.90;;;;;;8133600;29;20024;-81
2023/03/12 17:41:35;;;;;;;2.35;0.90;;;8.90;99.90;;;;;;8149241;29;20012;-81
2023/03/12 17:45:36;;;;;;;1.17;0.70;;;8.80;99.90;;;;;;8144929;29;20027;-81
2023/03/12 17:49:37;;;;;;;2.70;0.90;;;8.80;99.90;;;;;;8152969;29;20032;-80
2023/03/12 17:53:40;;;;;;;3.47;0.80;;;8.70;99.90;;;;;;8161144;29;20055;-80
2023/03/12 17:57:43;;;;;;;1.77;0.75;;;8.70;99.90;;;;;;8163418;29;20040;-81
2023/03/12 18:01:44;;;;;;;2.95;0.70;;;8.60;99.90;;;;;;8137343;29;20590;-80
2023/03/12 18:05:44;;;;;;;4.38;1.35;;;8.60;99.90;;;;;;8137479;29;20016;-80
2023/03/12 18:09:45;;;;;;;2.45;1.30;;;8.70;99.90;;;;;;8159704;29;20119;-81
2023/03/12 18:13:47;;;;;;;4.22;0.98;;;8.60;99.90;;;;;;8155535;29;20027;-79
2023/03/12 18:17:51;;;;;;;6.35;2.10;;;8.40;99.90;;;;;;8148957;29;20052;-78
2023/03/12 18:21:52;;;;;;;2.85;1.30;;;8.40;99.90;;;;;;8158937;29;20024;-79
2023/03/12 18:25:53;;;;;;;2.92;1.10;;;8.40;99.90;;;;;;8158083;29;20448;-78
2023/03/12 18:29:53;;;;;;;3.38;1.20;;;8.10;99.90;;;;;;8168237;29;20036;-80
2023/03/12 18:33:54;;;;;;;3.20;0.95;;;7.90;99.90;;;;;;8147155;29;20650;-78
2023/03/12 18:37:58;;;;;;;4.45;1.65;;;8.00;99.90;;;;;;8138661;29;20042;-78
2023/03/12 18:41:58;;;;;;;5.40;1.00;;;7.90;99.90;;;;;;8150933;29;20051;-79
2023/03/12 18:45:59;;;;;;;6.45;1.42;;;7.90;99.90;;;;;;8146830;28;20075;-77
2023/03/12 18:49:59;;;;;;;3.60;1.08;;;7.70;99.90;;;;;;8136396;29;20024;-78
2023/03/12 18:54:00;;;;;;;4.35;0.85;;;7.80;99.90;;;;;;8136726;29;20102;-79
2023/03/12 18:58:01;;;;;;;4.03;1.05;;;7.80;99.90;;;;;;8134289;29;20051;-78
2023/03/12 19:02:01;;;;;;;5.60;2.00;;;8.00;99.90;;;;;;8135875;29;20067;-79
2023/03/12 19:06:14;;;;;;;3.63;1.13;;;8.00;99.90;;;;;;8133148;29;20039;-79
2023/03/12 19:10:15;;;;;;;4.45;0.93;;;7.90;99.90;;;;;;8129545;29;20032;-78
2023/03/12 19:14:16;;;;;;;4.20;1.08;;;7.90;99.90;;;;;;8144127;29;20063;-78
2023/03/12 19:18:16;;;;;;;2.10;1.20;;;7.90;99.90;;;;;;8164369;29;20039;-79
2023/03/12 19:22:17;;;;;;;3.70;1.20;;;7.90;99.90;;;;;;8135710;29;20028;-78
2023/03/12 19:26:17;;;;;;;5.57;1.52;;;7.70;99.90;;;;;;8162504;28;20519;-79
2023/03/12 19:30:18;;;;;;;1.77;0.90;;;7.60;99.90;;;;;;8162896;29;20039;-78
2023/03/12 19:34:18;;;;;;;3.50;1.10;;;7.70;99.90;;;;;;8147453;29;20128;-78
2023/03/12 19:38:19;;;;;;;2.25;1.00;;;7.60;99.90;;;;;;8169573;29;20123;-78
2023/03/12 19:42:20;;;;;;;2.08;1.00;;;7.30;99.90;;;;;;8172950;29;20027;-78
2023/03/12 19:46:20;;;;;;;3.38;1.40;;;7.30;99.90;;;;;;8165324;28;20023;-79
2023/03/12 19:50:21;;;;;;;2.97;1.30;;;7.20;99.90;;;;;;8177366;29;20023;-78
2023/03/12 19:54:21;;;;;;;6.68;1.88;;;7.20;99.90;;;;;;8174710;29;20035;-79
2023/03/12 19:58:22;;;;;;;2.60;1.55;;;7.10;99.90;;;;;;8162815;29;20102;-79
2023/03/12 20:02:22;;;;;;;6.18;2.40;;;7.00;99.90;;;;;;8176089;29;20032;-78
2023/03/12 20:06:23;;;;;;;5.32;2.65;;;7.00;99.90;;;;;;8167556;28;20031;-78
2023/03/12 20:10:24;;;;;;;2.30;0.98;;;7.10;99.90;;;;;;8161278;29;20046;-78
2023/03/12 20:14:25;;;;;;;1.73;1.05;;;7.20;99.90;;;;;;8175329;29;21350;-79
2023/03/12 20:18:26;;;;;;;4.20;2.38;;;7.10;99.90;;;;;;8168728;29;20036;-79
2023/03/12 20:22:26;;;;;;;1.95;1.02;;;7.30;99.90;;;;;;8161755;29;20047;-78
2023/03/12 20:26:27;;;;;;;2.88;1.10;;;7.20;99.90;;;;;;8160163;29;20059;-79
2023/03/12 20:30:27;;;;;;;3.95;1.10;;;7.30;99.90;;;;;;8176498;29;20502;-79
2023/03/12 20:34:28;;;;;;;3.10;1.20;;;7.20;99.90;;;;;;8171094;29;20039;-79
2023/03/12 20:38:28;;;;;;;1.73;0.80;;;7.10;99.90;;;;;;8175539;29;20089;-78
2023/03/12 20:42:29;;;;;;;1.35;0.70;;;7.10;99.90;;;;;;8177208;29;20029;-79
2023/03/12 20:46:30;;;;;;;2.45;1.05;;;7.00;99.90;;;;;;8166804;28;20055;-79
2023/03/12 20:50:30;;;;;;;2.63;1.00;;;7.10;99.90;;;;;;8159617;29;20059;-78
2023/03/12 20:54:31;;;;;;;2.85;1.30;;;7.20;99.90;;;;;;8163446;29;20107;-78
2023/03/12 20:58:32;;;;;;;2.08;1.25;;;7.30;99.90;;;;;;8182952;29;20016;-79
2023/03/12 21:02:33;;;;;;;2.33;1.20;;;7.30;99.90;;;;;;8164453;29;20492;-78
2023/03/12 21:06:33;;;;;;;4.30;1.10;;;7.30;99.90;;;;;;8168704;28;20031;-77
2023/03/12 21:10:36;;;;;;;2.10;1.00;;;7.10;99.90;;;;;;8167872;29;20114;-77
2023/03/12 21:14:38;;;;;;;1.33;0.98;;;7.20;99.90;;;;;;8171647;28;20031;-77
2023/03/12 21:18:39;;;;;;;0.85;0.70;;;7.40;99.90;;;;;;8168234;29;20027;-77
2023/03/12 21:22:42;;;;;;;4.55;1.10;;;7.30;99.90;;;;;;8164156;29;20102;-77
2023/03/12 21:26:43;;;;;;;1.55;1.10;;;7.20;99.90;;;;;;8167039;29;20024;-77